sensor_id;sensor_type;location;lat;lon;timestamp;pressure;altitude;pressure_sealevel;temperature;humidity
9225;BME280;4647;48.072;11.616;2023-02-13T00:01:31;97092.28;;;1.51;88.94
9225;BME280;4647;48.072;11.616;2023-02-13T00:04:03;97093.09;;;1.60;88.92
9225;BME280;4647;48.072;11.616;2023-02-13T00:06:31;97094.94;;;1.51;88.83
9225;BME280;4647;48.072;11.616;2023-02-13T00:09:00;97085.72;;;1.35;89.59
9225;BME280;4647;48.072;11.616;2023-02-13T00:11:28;97084.22;;;1.42;89.44
9225;BME280;4647;48.072;11.616;2023-02-13T00:13:57;97065.56;;;1.20;89.50
9225;BME280;4647;48.072;11.616;2023-02-13T00:16:26;97090.03;;;1.44;89.29
9225;BME280;4647;48.072;11.616;2023-02-13T00:18:54;97084.03;;;1.39;89.60
9225;BME280;4647;48.072;11.616;2023-02-13T00:21:26;97073.88;;;1.18;90.03
9225;BME280;4647;48.072;11.616;2023-02-13T00:23:55;97078.72;;;1.16;90.66
9225;BME280;4647;48.072;11.616;2023-02-13T00:26:23;97069.03;;;1.20;90.61
9225;BME280;4647;48.072;11.616;2023-02-13T00:28:51;97058.34;;;1.20;90.76
9225;BME280;4647;48.072;11.616;2023-02-13T00:31:20;97074.75;;;1.36;90.51
9225;BME280;4647;48.072;11.616;2023-02-13T00:33:49;97068.53;;;1.49;90.13
9225;BME280;4647;48.072;11.616;2023-02-13T00:36:19;97066.50;;;1.46;89.70
9225;BME280;4647;48.072;11.616;2023-02-13T00:38:50;97065.88;;;1.49;89.63
9225;BME280;4647;48.072;11.616;2023-02-13T00:41:20;97068.31;;;1.37;90.06
9225;BME280;4647;48.072;11.616;2023-02-13T00:43:49;97069.56;;;1.40;90.15
9225;BME280;4647;48.072;11.616;2023-02-13T00:46:17;97068.28;;;1.29;90.38
9225;BME280;4647;48.072;11.616;2023-02-13T00:48:46;97063.91;;;1.33;90.60
9225;BME280;4647;48.072;11.616;2023-02-13T00:51:14;97062.56;;;1.44;90.31
9225;BME280;4647;48.072;11.616;2023-02-13T00:53:43;97065.69;;;1.46;90.15
9225;BME280;4647;48.072;11.616;2023-02-13T01:02:36;97070.97;;;1.37;90.22
9225;BME280;4647;48.072;11.616;2023-02-13T01:05:05;97063.50;;;1.48;90.07
9225;BME280;4647;48.072;11.616;2023-02-13T01:07:34;97057.25;;;1.52;89.84
9225;BME280;4647;48.072;11.616;2023-02-13T01:10:03;97055.50;;;1.48;90.00
9225;BME280;4647;48.072;11.616;2023-02-13T01:12:32;97060.88;;;1.57;89.56
9225;BME280;4647;48.072;11.616;2023-02-13T01:15:00;97064.00;;;1.50;89.91
9225;BME280;4647;48.072;11.616;2023-02-13T01:17:29;97060.84;;;1.48;89.89
9225;BME280;4647;48.072;11.616;2023-02-13T01:20:00;97064.13;;;1.45;89.85
9225;BME280;4647;48.072;11.616;2023-02-13T01:22:29;97055.44;;;1.39;90.08
9225;BME280;4647;48.072;11.616;2023-02-13T01:25:13;97055.13;;;1.41;90.00
9225;BME280;4647;48.072;11.616;2023-02-13T01:27:42;97054.16;;;1.37;90.13
9225;BME280;4647;48.072;11.616;2023-02-13T01:30:13;97060.25;;;1.29;90.02
9225;BME280;4647;48.072;11.616;2023-02-13T01:32:43;97050.63;;;1.50;89.72
9225;BME280;4647;48.072;11.616;2023-02-13T01:35:15;97053.75;;;1.43;89.40
9225;BME280;4647;48.072;11.616;2023-02-13T01:37:44;97044.09;;;1.34;89.86
9225;BME280;4647;48.072;11.616;2023-02-13T01:40:14;97050.78;;;1.45;89.58
9225;BME280;4647;48.072;11.616;2023-02-13T01:42:43;97052.13;;;1.34;89.93
9225;BME280;4647;48.072;11.616;2023-02-13T01:45:22;97051.38;;;1.42;89.78
9225;BME280;4647;48.072;11.616;2023-02-13T01:47:53;97051.28;;;1.25;90.00
9225;BME280;4647;48.072;11.616;2023-02-13T01:50:31;97046.44;;;1.27;90.05
9225;BME280;4647;48.072;11.616;2023-02-13T01:53:04;97052.22;;;1.20;90.27
9225;BME280;4647;48.072;11.616;2023-02-13T01:55:36;97055.78;;;1.15;90.04
9225;BME280;4647;48.072;11.616;2023-02-13T01:58:10;97047.06;;;1.23;90.00
9225;BME280;4647;48.072;11.616;2023-02-13T02:00:40;97057.25;;;1.21;90.21
9225;BME280;4647;48.072;11.616;2023-02-13T02:03:19;97050.34;;;1.20;90.07
9225;BME280;4647;48.072;11.616;2023-02-13T02:05:51;97048.94;;;1.23;89.85
9225;BME280;4647;48.072;11.616;2023-02-13T02:08:22;97055.72;;;1.29;89.77
9225;BME280;4647;48.072;11.616;2023-02-13T02:10:52;97048.66;;;1.33;89.43
9225;BME280;4647;48.072;11.616;2023-02-13T02:13:21;97046.56;;;1.21;89.43
9225;BME280;4647;48.072;11.616;2023-02-13T02:15:49;97058.22;;;1.26;89.31
9225;BME280;4647;48.072;11.616;2023-02-13T02:18:21;97058.34;;;1.20;89.61
9225;BME280;4647;48.072;11.616;2023-02-13T02:21:20;97061.50;;;1.22;89.44
9225;BME280;4647;48.072;11.616;2023-02-13T02:27:03;97064.41;;;1.12;89.19
9225;BME280;4647;48.072;11.616;2023-02-13T02:30:01;97054.47;;;1.04;89.43
9225;BME280;4647;48.072;11.616;2023-02-13T02:32:53;97059.63;;;1.01;89.15
9225;BME280;4647;48.072;11.616;2023-02-13T02:35:33;97061.50;;;1.00;89.29
9225;BME280;4647;48.072;11.616;2023-02-13T02:38:18;97053.31;;;0.97;89.33
9225;BME280;4647;48.072;11.616;2023-02-13T02:40:58;97062.34;;;0.87;89.45
9225;BME280;4647;48.072;11.616;2023-02-13T02:43:43;97060.16;;;0.89;89.42
9225;BME280;4647;48.072;11.616;2023-02-13T02:46:16;97062.34;;;0.87;89.23
9225;BME280;4647;48.072;11.616;2023-02-13T02:48:54;97035.59;;;0.56;89.50
9225;BME280;4647;48.072;11.616;2023-02-13T02:51:44;97068.63;;;0.69;89.66
9225;BME280;4647;48.072;11.616;2023-02-13T02:54:22;97071.91;;;0.66;89.51
9225;BME280;4647;48.072;11.616;2023-02-13T02:57:08;97066.19;;;0.58;89.84
9225;BME280;4647;48.072;11.616;2023-02-13T02:59:38;97068.19;;;0.53;89.89
9225;BME280;4647;48.072;11.616;2023-02-13T03:02:21;97054.13;;;0.61;90.09
9225;BME280;4647;48.072;11.616;2023-02-13T03:05:16;97060.69;;;0.55;90.08
9225;BME280;4647;48.072;11.616;2023-02-13T03:07:58;97063.06;;;0.56;90.11
9225;BME280;4647;48.072;11.616;2023-02-13T03:10:31;97061.59;;;0.50;90.14
9225;BME280;4647;48.072;11.616;2023-02-13T03:13:16;97067.50;;;0.47;90.22
9225;BME280;4647;48.072;11.616;2023-02-13T03:15:58;97067.81;;;0.46;90.27
9225;BME280;4647;48.072;11.616;2023-02-13T03:18:43;97065.25;;;0.41;90.82
9225;BME280;4647;48.072;11.616;2023-02-13T03:21:43;97064.84;;;0.47;90.22
9225;BME280;4647;48.072;11.616;2023-02-13T03:24:34;97062.88;;;0.53;90.09
9225;BME280;4647;48.072;11.616;2023-02-13T03:27:10;97036.59;;;0.46;89.89
9225;BME280;4647;48.072;11.616;2023-02-13T03:30:06;97041.44;;;0.44;89.54
9225;BME280;4647;48.072;11.616;2023-02-13T03:32:41;97061.53;;;0.64;89.72
9225;BME280;4647;48.072;11.616;2023-02-13T03:35:21;97061.53;;;0.64;89.82
9225;BME280;4647;48.072;11.616;2023-02-13T03:38:12;97060.16;;;0.67;89.70
9225;BME280;4647;48.072;11.616;2023-02-13T03:40:46;97067.94;;;0.77;89.75
9225;BME280;4647;48.072;11.616;2023-02-13T03:43:31;97078.03;;;0.88;89.51
9225;BME280;4647;48.072;11.616;2023-02-13T03:46:04;97072.00;;;0.97;89.10
9225;BME280;4647;48.072;11.616;2023-02-13T03:48:35;97074.66;;;0.74;89.12
9225;BME280;4647;48.072;11.616;2023-02-13T03:51:21;97075.19;;;0.85;89.24
9225;BME280;4647;48.072;11.616;2023-02-13T03:53:57;97072.88;;;0.92;88.66
9225;BME280;4647;48.072;11.616;2023-02-13T03:56:28;97073.63;;;0.84;88.89
9225;BME280;4647;48.072;11.616;2023-02-13T03:59:17;97053.09;;;0.71;88.51
9225;BME280;4647;48.072;11.616;2023-02-13T04:01:57;97083.59;;;0.56;89.78
9225;BME280;4647;48.072;11.616;2023-02-13T04:04:33;97080.31;;;0.59;89.68
9225;BME280;4647;48.072;11.616;2023-02-13T04:07:07;97078.78;;;0.44;90.08
9225;BME280;4647;48.072;11.616;2023-02-13T04:09:59;97073.94;;;0.46;89.86
9225;BME280;4647;48.072;11.616;2023-02-13T04:12:35;97079.66;;;0.53;89.77
9225;BME280;4647;48.072;11.616;2023-02-13T04:15:09;97084.16;;;0.67;89.15
9225;BME280;4647;48.072;11.616;2023-02-13T04:17:44;97082.81;;;0.55;89.18
9225;BME280;4647;48.072;11.616;2023-02-13T04:20:14;97079.88;;;0.43;89.79
9225;BME280;4647;48.072;11.616;2023-02-13T04:22:43;97081.94;;;0.46;89.60
9225;BME280;4647;48.072;11.616;2023-02-13T04:25:16;97084.50;;;0.51;89.60
9225;BME280;4647;48.072;11.616;2023-02-13T04:27:45;97076.72;;;0.41;89.48
9225;BME280;4647;48.072;11.616;2023-02-13T04:30:14;97077.59;;;0.50;89.15
9225;BME280;4647;48.072;11.616;2023-02-13T04:32:42;97073.13;;;0.46;89.08
9225;BME280;4647;48.072;11.616;2023-02-13T04:35:10;97084.03;;;0.36;89.41
9225;BME280;4647;48.072;11.616;2023-02-13T04:37:39;97079.31;;;0.33;89.79
9225;BME280;4647;48.072;11.616;2023-02-13T04:40:09;97076.59;;;0.46;89.28
9225;BME280;4647;48.072;11.616;2023-02-13T04:42:40;97076.16;;;0.30;89.14
9225;BME280;4647;48.072;11.616;2023-02-13T04:45:09;97073.84;;;0.38;89.58
9225;BME280;4647;48.072;11.616;2023-02-13T04:47:37;97070.09;;;0.39;89.33
9225;BME280;4647;48.072;11.616;2023-02-13T04:50:06;97073.28;;;0.63;89.01
9225;BME280;4647;48.072;11.616;2023-02-13T04:52:35;97067.41;;;0.52;88.67
9225;BME280;4647;48.072;11.616;2023-02-13T04:55:04;97069.91;;;0.49;89.00
9225;BME280;4647;48.072;11.616;2023-02-13T04:57:33;97065.00;;;0.65;89.30
9225;BME280;4647;48.072;11.616;2023-02-13T05:00:06;97066.41;;;0.26;89.65
9225;BME280;4647;48.072;11.616;2023-02-13T05:02:35;97070.25;;;0.56;88.99
9225;BME280;4647;48.072;11.616;2023-02-13T05:05:03;97069.31;;;0.38;88.86
9225;BME280;4647;48.072;11.616;2023-02-13T05:07:32;97065.28;;;0.63;88.05
9225;BME280;4647;48.072;11.616;2023-02-13T05:10:00;97070.63;;;0.63;87.53
9225;BME280;4647;48.072;11.616;2023-02-13T05:12:29;97072.03;;;0.60;87.76
9225;BME280;4647;48.072;11.616;2023-02-13T05:14:58;97073.59;;;0.61;87.64
9225;BME280;4647;48.072;11.616;2023-02-13T05:17:28;97067.97;;;0.27;88.76
9225;BME280;4647;48.072;11.616;2023-02-13T05:19:57;97074.34;;;0.40;89.00
9225;BME280;4647;48.072;11.616;2023-02-13T05:22:26;97074.25;;;0.67;88.19
9225;BME280;4647;48.072;11.616;2023-02-13T05:25:07;97070.38;;;0.51;88.55
9225;BME280;4647;48.072;11.616;2023-02-13T05:27:35;97081.59;;;0.61;88.03
9225;BME280;4647;48.072;11.616;2023-02-13T05:30:05;97070.44;;;0.59;87.65
9225;BME280;4647;48.072;11.616;2023-02-13T05:32:34;97085.22;;;0.79;87.50
9225;BME280;4647;48.072;11.616;2023-02-13T05:35:03;97087.22;;;0.74;87.32
9225;BME280;4647;48.072;11.616;2023-02-13T05:37:34;97079.78;;;0.71;87.03
9225;BME280;4647;48.072;11.616;2023-02-13T05:40:03;97088.44;;;0.54;87.61
9225;BME280;4647;48.072;11.616;2023-02-13T05:42:32;97082.03;;;0.55;87.50
9225;BME280;4647;48.072;11.616;2023-02-13T05:45:00;97088.16;;;0.55;87.70
9225;BME280;4647;48.072;11.616;2023-02-13T05:47:29;97079.88;;;0.43;87.99
9225;BME280;4647;48.072;11.616;2023-02-13T05:50:00;97088.25;;;0.50;87.84
9225;BME280;4647;48.072;11.616;2023-02-13T05:52:28;97087.97;;;0.38;88.67
9225;BME280;4647;48.072;11.616;2023-02-13T05:54:56;97090.09;;;0.64;88.09
9225;BME280;4647;48.072;11.616;2023-02-13T05:57:25;97093.81;;;0.76;87.21
9225;BME280;4647;48.072;11.616;2023-02-13T05:59:53;97092.38;;;0.56;87.52
9225;BME280;4647;48.072;11.616;2023-02-13T06:02:22;97098.75;;;0.69;87.02
9225;BME280;4647;48.072;11.616;2023-02-13T06:04:50;97100.25;;;0.75;86.90
9225;BME280;4647;48.072;11.616;2023-02-13T06:07:21;97101.66;;;0.59;87.39
9225;BME280;4647;48.072;11.616;2023-02-13T06:09:50;97103.09;;;0.79;87.10
9225;BME280;4647;48.072;11.616;2023-02-13T06:12:18;97096.53;;;0.85;86.27
9225;BME280;4647;48.072;11.616;2023-02-13T06:14:46;97099.63;;;0.78;86.73
9225;BME280;4647;48.072;11.616;2023-02-13T06:17:15;97104.25;;;0.86;86.49
9225;BME280;4647;48.072;11.616;2023-02-13T06:19:43;97104.22;;;1.00;85.96
9225;BME280;4647;48.072;11.616;2023-02-13T06:22:12;97104.50;;;0.76;86.21
9225;BME280;4647;48.072;11.616;2023-02-13T06:24:43;97113.16;;;0.82;86.45
9225;BME280;4647;48.072;11.616;2023-02-13T06:27:11;97114.13;;;0.86;85.87
9225;BME280;4647;48.072;11.616;2023-02-13T06:29:40;97118.84;;;0.89;85.86
9225;BME280;4647;48.072;11.616;2023-02-13T06:32:08;97117.66;;;0.95;85.83
9225;BME280;4647;48.072;11.616;2023-02-13T06:34:37;97106.59;;;0.88;85.77
9225;BME280;4647;48.072;11.616;2023-02-13T06:37:05;97121.91;;;0.96;85.89
9225;BME280;4647;48.072;11.616;2023-02-13T06:39:36;97124.97;;;0.89;86.37
9225;BME280;4647;48.072;11.616;2023-02-13T06:42:07;97122.75;;;1.05;85.47
9225;BME280;4647;48.072;11.616;2023-02-13T06:44:36;97123.50;;;1.19;85.31
9225;BME280;4647;48.072;11.616;2023-02-13T06:47:05;97124.78;;;1.00;85.76
9225;BME280;4647;48.072;11.616;2023-02-13T06:49:33;97116.56;;;0.96;86.00
9225;BME280;4647;48.072;11.616;2023-02-13T06:52:01;97134.34;;;0.65;87.42
9225;BME280;4647;48.072;11.616;2023-02-13T06:54:30;97132.50;;;0.87;86.78
9225;BME280;4647;48.072;11.616;2023-02-13T06:56:58;97131.41;;;0.88;86.45
9225;BME280;4647;48.072;11.616;2023-02-13T06:59:29;97125.81;;;0.76;86.43
9225;BME280;4647;48.072;11.616;2023-02-13T07:01:58;97127.31;;;0.69;87.05
9225;BME280;4647;48.072;11.616;2023-02-13T07:04:27;97132.06;;;0.72;87.08
9225;BME280;4647;48.072;11.616;2023-02-13T07:06:56;97139.38;;;1.02;86.44
9225;BME280;4647;48.072;11.616;2023-02-13T07:09:25;97137.13;;;0.96;85.79
9225;BME280;4647;48.072;11.616;2023-02-13T07:11:53;97134.09;;;1.11;85.49
9225;BME280;4647;48.072;11.616;2023-02-13T07:14:21;97140.09;;;1.16;84.60
9225;BME280;4647;48.072;11.616;2023-02-13T07:16:52;97143.44;;;0.64;86.66
9225;BME280;4647;48.072;11.616;2023-02-13T07:19:21;97149.97;;;0.44;87.44
9225;BME280;4647;48.072;11.616;2023-02-13T07:21:49;97152.72;;;0.66;87.30
9225;BME280;4647;48.072;11.616;2023-02-13T07:24:18;97155.47;;;0.75;86.83
9225;BME280;4647;48.072;11.616;2023-02-13T07:26:46;97156.41;;;0.92;86.10
9225;BME280;4647;48.072;11.616;2023-02-13T07:29:15;97154.00;;;1.05;85.34
9225;BME280;4647;48.072;11.616;2023-02-13T07:31:43;97168.28;;;1.22;84.51
9225;BME280;4647;48.072;11.616;2023-02-13T07:34:14;97167.09;;;1.15;84.69
9225;BME280;4647;48.072;11.616;2023-02-13T07:36:43;97173.31;;;1.24;84.00
9225;BME280;4647;48.072;11.616;2023-02-13T07:39:11;97180.88;;;1.08;84.48
9225;BME280;4647;48.072;11.616;2023-02-13T07:41:40;97180.56;;;0.74;85.70
9225;BME280;4647;48.072;11.616;2023-02-13T07:44:08;97170.63;;;1.02;85.50
9225;BME280;4647;48.072;11.616;2023-02-13T07:46:37;97178.16;;;0.86;85.34
9225;BME280;4647;48.072;11.616;2023-02-13T07:49:05;97184.34;;;0.73;85.30
9225;BME280;4647;48.072;11.616;2023-02-13T07:51:36;97176.63;;;0.57;86.62
9225;BME280;4647;48.072;11.616;2023-02-13T07:54:05;97184.75;;;0.52;86.89
9225;BME280;4647;48.072;11.616;2023-02-13T07:56:33;97176.56;;;0.99;85.51
9225;BME280;4647;48.072;11.616;2023-02-13T07:59:02;97177.25;;;1.49;84.45
9225;BME280;4647;48.072;11.616;2023-02-13T08:01:30;97182.72;;;1.66;83.16
9225;BME280;4647;48.072;11.616;2023-02-13T08:03:59;97180.63;;;1.63;82.12
9225;BME280;4647;48.072;11.616;2023-02-13T08:06:28;97195.66;;;1.73;81.75
9225;BME280;4647;48.072;11.616;2023-02-13T08:08:59;97185.09;;;1.68;81.53
9225;BME280;4647;48.072;11.616;2023-02-13T08:11:40;97203.84;;;1.76;81.73
9225;BME280;4647;48.072;11.616;2023-02-13T08:14:21;97204.31;;;1.78;81.39
9225;BME280;4647;48.072;11.616;2023-02-13T08:16:51;97199.31;;;1.85;80.52
9225;BME280;4647;48.072;11.616;2023-02-13T08:19:20;97195.28;;;1.66;81.12
9225;BME280;4647;48.072;11.616;2023-02-13T08:21:49;97204.97;;;1.17;83.07
9225;BME280;4647;48.072;11.616;2023-02-13T08:24:20;97197.81;;;0.90;84.33
9225;BME280;4647;48.072;11.616;2023-02-13T08:26:49;97196.31;;;1.34;83.21
9225;BME280;4647;48.072;11.616;2023-02-13T08:29:17;97184.09;;;1.64;82.47
9225;BME280;4647;48.072;11.616;2023-02-13T08:31:48;97198.97;;;1.78;81.55
9225;BME280;4647;48.072;11.616;2023-02-13T08:34:16;97187.88;;;1.63;81.87
9225;BME280;4647;48.072;11.616;2023-02-13T08:36:45;97186.75;;;1.86;81.71
9225;BME280;4647;48.072;11.616;2023-02-13T08:39:13;97187.31;;;2.05;80.45
9225;BME280;4647;48.072;11.616;2023-02-13T08:41:44;97189.22;;;2.05;80.66
9225;BME280;4647;48.072;11.616;2023-02-13T08:44:13;97191.41;;;2.03;80.11
9225;BME280;4647;48.072;11.616;2023-02-13T08:46:41;97184.81;;;2.09;80.22
9225;BME280;4647;48.072;11.616;2023-02-13T08:49:10;97183.91;;;2.13;79.80
9225;BME280;4647;48.072;11.616;2023-02-13T08:51:38;97195.25;;;2.19;80.00
9225;BME280;4647;48.072;11.616;2023-02-13T08:54:07;97189.78;;;2.33;79.22
9225;BME280;4647;48.072;11.616;2023-02-13T08:56:35;97203.16;;;2.33;79.25
9225;BME280;4647;48.072;11.616;2023-02-13T08:59:06;97192.81;;;2.40;79.75
9225;BME280;4647;48.072;11.616;2023-02-13T09:01:35;97196.19;;;2.63;78.30
9225;BME280;4647;48.072;11.616;2023-02-13T09:04:03;97197.31;;;2.79;78.12
9225;BME280;4647;48.072;11.616;2023-02-13T09:06:32;97206.31;;;2.83;77.69
9225;BME280;4647;48.072;11.616;2023-02-13T09:09:03;97205.34;;;2.79;77.12
9225;BME280;4647;48.072;11.616;2023-02-13T09:11:32;97212.28;;;2.32;78.42
9225;BME280;4647;48.072;11.616;2023-02-13T09:14:00;97200.53;;;2.41;78.09
9225;BME280;4647;48.072;11.616;2023-02-13T09:16:31;97205.94;;;2.19;78.99
9225;BME280;4647;48.072;11.616;2023-02-13T09:19:00;97205.16;;;2.19;79.22
9225;BME280;4647;48.072;11.616;2023-02-13T09:21:28;97208.63;;;2.19;78.89
9225;BME280;4647;48.072;11.616;2023-02-13T09:23:57;97205.88;;;2.41;78.13
9225;BME280;4647;48.072;11.616;2023-02-13T09:26:26;97202.25;;;2.37;77.92
9225;BME280;4647;48.072;11.616;2023-02-13T09:28:54;97222.47;;;2.21;78.52
9225;BME280;4647;48.072;11.616;2023-02-13T09:31:23;97216.38;;;2.29;78.81
9225;BME280;4647;48.072;11.616;2023-02-13T09:33:54;97187.31;;;2.05;79.17
9225;BME280;4647;48.072;11.616;2023-02-13T09:36:23;97204.84;;;2.20;78.29
9225;BME280;4647;48.072;11.616;2023-02-13T09:38:53;97215.09;;;2.27;78.37
9225;BME280;4647;48.072;11.616;2023-02-13T09:41:24;97216.19;;;2.65;77.32
9225;BME280;4647;48.072;11.616;2023-02-13T09:43:55;97212.97;;;2.37;77.91
9225;BME280;4647;48.072;11.616;2023-02-13T09:46:28;97207.75;;;2.98;76.16
9225;BME280;4647;48.072;11.616;2023-02-13T09:49:05;97208.69;;;2.93;76.07
9225;BME280;4647;48.072;11.616;2023-02-13T09:51:35;97208.53;;;3.07;76.06
9225;BME280;4647;48.072;11.616;2023-02-13T09:54:05;97203.22;;;3.33;75.24
9225;BME280;4647;48.072;11.616;2023-02-13T09:56:39;97211.88;;;3.38;75.33
9225;BME280;4647;48.072;11.616;2023-02-13T09:59:25;97209.69;;;3.58;73.85
9225;BME280;4647;48.072;11.616;2023-02-13T10:02:01;97208.41;;;3.12;75.19
9225;BME280;4647;48.072;11.616;2023-02-13T10:04:47;97184.59;;;2.93;75.17
9225;BME280;4647;48.072;11.616;2023-02-13T10:07:23;97222.56;;;3.04;75.09
9225;BME280;4647;48.072;11.616;2023-02-13T10:10:00;97218.97;;;3.43;73.90
9225;BME280;4647;48.072;11.616;2023-02-13T10:12:43;97213.13;;;3.06;75.00
9225;BME280;4647;48.072;11.616;2023-02-13T10:15:20;97219.63;;;3.31;74.66
9225;BME280;4647;48.072;11.616;2023-02-13T10:17:56;97199.41;;;3.68;73.25
9225;BME280;4647;48.072;11.616;2023-02-13T10:20:34;97212.31;;;3.84;72.62
9225;BME280;4647;48.072;11.616;2023-02-13T10:23:15;97215.38;;;3.56;74.17
9225;BME280;4647;48.072;11.616;2023-02-13T10:25:48;97210.28;;;3.72;72.60
9225;BME280;4647;48.072;11.616;2023-02-13T10:28:29;97211.88;;;3.30;74.77
9225;BME280;4647;48.072;11.616;2023-02-13T10:31:04;97208.06;;;3.74;72.82
9225;BME280;4647;48.072;11.616;2023-02-13T10:33:39;97201.25;;;3.94;72.74
9225;BME280;4647;48.072;11.616;2023-02-13T10:36:17;97205.56;;;4.24;71.70
9225;BME280;4647;48.072;11.616;2023-02-13T10:38:54;97172.44;;;3.74;71.55
9225;BME280;4647;48.072;11.616;2023-02-13T10:41:24;97201.81;;;3.35;73.59
9225;BME280;4647;48.072;11.616;2023-02-13T10:44:13;97188.34;;;2.75;75.65
9225;BME280;4647;48.072;11.616;2023-02-13T10:46:54;97203.63;;;2.74;76.66
9225;BME280;4647;48.072;11.616;2023-02-13T10:49:32;97204.47;;;2.44;77.76
9225;BME280;4647;48.072;11.616;2023-02-13T10:52:17;97195.94;;;2.33;78.76
9225;BME280;4647;48.072;11.616;2023-02-13T10:55:01;97195.03;;;3.21;75.76
9225;BME280;4647;48.072;11.616;2023-02-13T10:57:47;97195.34;;;3.45;75.16
9225;BME280;4647;48.072;11.616;2023-02-13T11:00:23;97194.78;;;3.95;72.72
9225;BME280;4647;48.072;11.616;2023-02-13T11:02:56;97184.09;;;3.86;72.75
9225;BME280;4647;48.072;11.616;2023-02-13T11:05:30;97178.03;;;4.07;71.50
9225;BME280;4647;48.072;11.616;2023-02-13T11:08:02;97189.34;;;4.21;71.33
9225;BME280;4647;48.072;11.616;2023-02-13T11:13:15;97175.50;;;3.37;73.74
9225;BME280;4647;48.072;11.616;2023-02-13T11:15:55;97182.22;;;3.69;73.33
9225;BME280;4647;48.072;11.616;2023-02-13T11:18:26;97164.75;;;3.63;72.34
9225;BME280;4647;48.072;11.616;2023-02-13T11:21:01;97169.44;;;3.84;72.49
9225;BME280;4647;48.072;11.616;2023-02-13T11:23:39;97172.81;;;4.01;71.98
9225;BME280;4647;48.072;11.616;2023-02-13T11:26:10;97152.47;;;3.45;73.34
9225;BME280;4647;48.072;11.616;2023-02-13T11:28:47;97177.25;;;4.06;72.32
9225;BME280;4647;48.072;11.616;2023-02-13T11:31:26;97166.69;;;4.01;71.66
9225;BME280;4647;48.072;11.616;2023-02-13T11:33:55;97166.22;;;3.99;72.34
9225;BME280;4647;48.072;11.616;2023-02-13T11:36:26;97168.38;;;4.14;71.15
9225;BME280;4647;48.072;11.616;2023-02-13T11:39:03;97169.84;;;4.03;71.83
9225;BME280;4647;48.072;11.616;2023-02-13T11:41:38;97169.22;;;4.06;72.17
9225;BME280;4647;48.072;11.616;2023-02-13T11:44:19;97169.22;;;4.74;70.44
9225;BME280;4647;48.072;11.616;2023-02-13T11:46:51;97172.53;;;4.71;69.43
9225;BME280;4647;48.072;11.616;2023-02-13T11:49:22;97175.13;;;3.65;72.39
9225;BME280;4647;48.072;11.616;2023-02-13T11:51:52;97167.00;;;4.08;71.37
9225;BME280;4647;48.072;11.616;2023-02-13T11:54:29;97158.88;;;3.70;71.55
9225;BME280;4647;48.072;11.616;2023-02-13T11:57:01;97167.47;;;4.10;70.86
9225;BME280;4647;48.072;11.616;2023-02-13T11:59:32;97169.91;;;4.62;69.56
9225;BME280;4647;48.072;11.616;2023-02-13T12:02:14;97166.94;;;4.55;69.72
9225;BME280;4647;48.072;11.616;2023-02-13T12:04:43;97169.69;;;4.76;69.21
9225;BME280;4647;48.072;11.616;2023-02-13T12:07:15;97168.72;;;4.72;68.91
9225;BME280;4647;48.072;11.616;2023-02-13T12:09:49;97169.34;;;4.77;69.29
9225;BME280;4647;48.072;11.616;2023-02-13T12:12:26;97162.38;;;5.06;67.76
9225;BME280;4647;48.072;11.616;2023-02-13T12:14:56;97169.63;;;4.84;68.55
9225;BME280;4647;48.072;11.616;2023-02-13T12:17:27;97168.19;;;5.08;68.07
9225;BME280;4647;48.072;11.616;2023-02-13T12:19:58;97160.81;;;4.46;69.31
9225;BME280;4647;48.072;11.616;2023-02-13T12:22:31;97165.34;;;4.83;68.12
9225;BME280;4647;48.072;11.616;2023-02-13T12:25:26;97161.63;;;4.97;67.67
9225;BME280;4647;48.072;11.616;2023-02-13T12:28:10;97151.22;;;5.16;67.40
9225;BME280;4647;48.072;11.616;2023-02-13T12:30:59;97149.84;;;5.31;66.92
9225;BME280;4647;48.072;11.616;2023-02-13T12:33:47;97151.75;;;5.30;67.02
9225;BME280;4647;48.072;11.616;2023-02-13T12:36:20;97143.31;;;4.99;68.07
9225;BME280;4647;48.072;11.616;2023-02-13T12:39:09;97135.03;;;5.24;67.02
9225;BME280;4647;48.072;11.616;2023-02-13T12:41:50;97133.59;;;5.27;66.56
9225;BME280;4647;48.072;11.616;2023-02-13T12:44:47;97129.78;;;5.28;66.67
9225;BME280;4647;48.072;11.616;2023-02-13T12:47:21;97129.84;;;5.19;66.98
9225;BME280;4647;48.072;11.616;2023-02-13T12:50:07;97127.44;;;5.27;67.13
9225;BME280;4647;48.072;11.616;2023-02-13T12:52:46;97125.72;;;5.22;66.92
9225;BME280;4647;48.072;11.616;2023-02-13T12:55:42;97124.09;;;5.09;67.48
9225;BME280;4647;48.072;11.616;2023-02-13T12:58:33;97114.00;;;5.06;67.97
9225;BME280;4647;48.072;11.616;2023-02-13T13:01:17;97125.34;;;5.11;67.50
9225;BME280;4647;48.072;11.616;2023-02-13T13:03:53;97121.13;;;4.60;69.17
9225;BME280;4647;48.072;11.616;2023-02-13T13:06:44;97118.34;;;4.77;69.07
9225;BME280;4647;48.072;11.616;2023-02-13T13:09:31;97124.03;;;4.97;68.69
9225;BME280;4647;48.072;11.616;2023-02-13T13:12:21;97118.00;;;4.79;68.77
9225;BME280;4647;48.072;11.616;2023-02-13T13:15:02;97126.44;;;5.64;66.17
9225;BME280;4647;48.072;11.616;2023-02-13T13:17:54;97124.75;;;5.60;66.10
9225;BME280;4647;48.072;11.616;2023-02-13T13:20:51;97118.38;;;5.31;66.76
9225;BME280;4647;48.072;11.616;2023-02-13T13:23:23;97124.97;;;5.01;68.09
9225;BME280;4647;48.072;11.616;2023-02-13T13:26:01;97123.50;;;5.24;67.54
9225;BME280;4647;48.072;11.616;2023-02-13T13:28:36;97126.31;;;5.28;67.24
9225;BME280;4647;48.072;11.616;2023-02-13T13:31:09;97129.88;;;4.99;68.14
9225;BME280;4647;48.072;11.616;2023-02-13T13:33:41;97132.50;;;4.57;69.67
9225;BME280;4647;48.072;11.616;2023-02-13T13:36:14;97123.75;;;4.69;69.01
9225;BME280;4647;48.072;11.616;2023-02-13T13:38:56;97125.66;;;4.68;69.12
9225;BME280;4647;48.072;11.616;2023-02-13T13:41:31;97118.06;;;4.91;68.44
9225;BME280;4647;48.072;11.616;2023-02-13T13:44:14;97117.78;;;4.63;69.55
9225;BME280;4647;48.072;11.616;2023-02-13T13:46:55;97127.59;;;4.59;69.58
9225;BME280;4647;48.072;11.616;2023-02-13T13:49:34;97131.72;;;4.56;69.81
9225;BME280;4647;48.072;11.616;2023-02-13T13:52:19;97120.28;;;4.39;71.19
9225;BME280;4647;48.072;11.616;2023-02-13T13:54:48;97120.25;;;4.47;70.66
9225;BME280;4647;48.072;11.616;2023-02-13T13:57:19;97132.78;;;4.35;71.47
9225;BME280;4647;48.072;11.616;2023-02-13T14:02:47;97121.63;;;4.24;71.51
9225;BME280;4647;48.072;11.616;2023-02-13T14:05:25;97127.00;;;4.24;71.57
9225;BME280;4647;48.072;11.616;2023-02-13T14:07:56;97129.78;;;3.98;72.88
9225;BME280;4647;48.072;11.616;2023-02-13T14:13:31;97128.63;;;4.46;70.82
9225;BME280;4647;48.072;11.616;2023-02-13T14:16:01;97119.56;;;4.80;69.83